• Join FlightAware (Why Join?)
  • Login
  • US Flag 
05:18PM EST


 

Airport Tracker/Info


-or-


 

Live Flight TrackerFlight Track Log ✈ UAL4625 ✈ 27-Apr-2013 ✈ KCHS - KEWR

Flight Track Log - Related Links

Times and Time Zones

All times are in EDT time to prevent confusion due to time zone crossing. See the UAL4625 flight status page for this flight to view local times or setup timezone preferences in your user account.

Time Position Orientation Groundspeed Altitude Reporting Facility
EDT Latitude Longitude Course Direction KTS MPH feet Rate Location/Type
11:04AM 33.0228 -80.0014 13° North 247 284 4,500  Level Jacksonville Center
11:05AM 33.2449 -79.9277 North  Level FlightAware Approximate
11:05AM 33.0911 -79.9794 15° North 265 305 6,800  Level Jacksonville Center
11:06AM 33.3349 -79.8992 23° Northeast  Level FlightAware Approximate
11:06AM 33.1636 -79.9597 13° North 265 305 9,100  Level Jacksonville Center
11:07AM 33.4250 -79.8717 North  Level FlightAware Approximate
11:07AM 33.2383 -79.9372 14° North 265 305 11,000  Level Jacksonville Center
11:08AM 33.5164 -79.8477 13° North  Level FlightAware Approximate
11:08AM 33.3256 -79.9144 12° North 281 323 11,600  Level Jacksonville Center
11:09AM 33.6075 -79.8217 13° North  Level FlightAware Approximate
11:09AM 33.4208 -79.8864 14° North 319 367 12,900  Level Jacksonville Center
11:10AM 33.5100 -79.8611 13° North 331 381 15,800 2,220 Climbing Jacksonville Center
11:11AM 33.5675 -79.9089 325° Northwest 255 293 17,400 1,320 Climbing Jacksonville Center
11:12AM 33.5469 -80.0117 257° West 215 247 18,500 1,500 Climbing Jacksonville Center
11:13AM 33.5242 -80.1147 255° West 261 300 20,500 1,920 Climbing Jacksonville Center
11:14AM 33.5033 -80.2150 256° West 291 335 22,400 1,200 Climbing Jacksonville Center
11:15AM 33.5281 -80.3014 289° West 292 336 23,000 420 Climbing Jacksonville Center
11:16AM 33.6150 -80.2664 19° North 195 224 23,300 780 Climbing Jacksonville Center
11:17AM 33.6925 -80.1842 41° Northeast 270 311 24,600 840 Climbing Jacksonville Center
11:18AM 33.7789 -80.1242 30° Northeast 308 354 25,000 360 Climbing Jacksonville Center
11:19AM 33.8719 -80.0886 18° North 332 382 25,400 600 Climbing Jacksonville Center
11:20AM 33.9692 -80.0506 18° North 350 403 26,300 960 Climbing Jacksonville Center
11:21AM 34.1317 -79.9597 25° Northeast 376 433 28,100 1,020 Climbing Washington Center
11:22AM 34.2256 -79.9044 26° Northeast 376 433 29,300 1,200 Climbing Washington Center
11:23AM 34.3258 -79.8417 27° Northeast 382 440 30,500 1,080 Climbing Washington Center
11:24AM 34.4217 -79.7886 25° Northeast 382 440 31,500 900 Climbing Washington Center
11:25AM 34.5197 -79.7233 29° Northeast 382 440 32,300 840 Climbing Washington Center
11:26AM 34.6219 -79.6653 25° Northeast 389 448 33,300 900 Climbing Washington Center
11:27AM 34.7242 -79.6022 27° Northeast 403 464 34,200 840 Climbing Washington Center
11:28AM 34.8286 -79.5417 25° Northeast 403 464 35,000 420 Climbing Washington Center
11:29AM 34.9350 -79.4758 27° Northeast 408 470 35,100  Climbing Washington Center
11:30AM 35.0436 -79.4075 27° Northeast 421 484 35,000  Descending Washington Center
11:31AM 35.1439 -79.3361 30° Northeast 421 484 35,100  Climbing Washington Center
11:32AM 35.2486 -79.2619 30° Northeast 421 484 35,100  Level Washington Center
11:33AM 35.3592 -79.1881 29° Northeast 429 494 35,100  Level Washington Center
11:34AM 35.4636 -79.1164 29° Northeast 437 503 35,100  Level Washington Center
11:35AM 35.5639 -79.0442 30° Northeast 430 495 35,100  Level Washington Center
11:36AM 35.6703 -78.9719 29° Northeast 430 495 35,100  Level Washington Center
11:37AM 35.7764 -78.8997 29° Northeast 430 495 35,100  Level Washington Center
11:38AM 35.8831 -78.8222 30° Northeast 430 495 35,100  Level Washington Center
11:39AM 35.9892 -78.7494 29° Northeast 430 495 35,100  Level Washington Center
11:40AM 36.0933 -78.6739 30° Northeast 430 495 35,100  Level Washington Center
11:41AM 36.1997 -78.5983 30° Northeast 430 495 35,100  Level Washington Center
11:42AM 36.3017 -78.5250 30° Northeast 430 495 35,100  Level Washington Center
11:43AM 36.4058 -78.4514 30° Northeast 430 495 35,100  Level Washington Center
11:44AM 36.5097 -78.3750 31° Northeast 430 495 35,100  Level Washington Center
11:45AM 36.6178 -78.2989 29° Northeast 430 495 35,100  Level Washington Center
11:46AM 36.7069 -78.2319 31° Northeast 430 495 35,100  Level Washington Center
11:47AM 36.8214 -78.1503 30° Northeast 425 489 35,100 -60 Level Washington Center
11:48AM 36.9231 -78.0756 30° Northeast 430 495 35,000  Descending Washington Center
11:49AM 37.0292 -77.9983 30° Northeast 430 495 35,100  Climbing Washington Center
11:50AM 37.1328 -77.9208 31° Northeast 430 495 35,100  Level Washington Center
11:51AM 37.2386 -77.8483 29° Northeast 430 495 35,100  Level Washington Center
11:52AM 37.3400 -77.7731 31° Northeast 430 495 35,100  Level Washington Center
11:53AM 37.4414 -77.6950 31° Northeast 430 495 35,100  Level Washington Center
11:54AM 37.5428 -77.6217 30° Northeast 430 495 35,100  Level Washington Center
11:55AM 37.6464 -77.5458 30° Northeast 425 489 35,100  Level Washington Center
11:56AM 37.7497 -77.4669 31° Northeast 425 489 35,100  Level Washington Center
11:57AM 37.8531 -77.3906 30° Northeast 425 489 35,100  Level Washington Center
11:58AM 37.9567 -77.3089 32° Northeast 425 489 35,100  Level Washington Center
11:59AM 38.0558 -77.2242 34° Northeast 430 495 35,100  Level Washington Center
12:00PM 38.1572 -77.1286 37° Northeast 435 501 35,100  Level Washington Center
12:01PM 38.2564 -77.0381 36° Northeast 435 501 35,100  Level Washington Center
12:02PM 38.3511 -76.9500 36° Northeast 430 495 35,100  Level Washington Center
12:03PM 38.4522 -76.8589 35° Northeast 430 495 35,100  Level Washington Center
12:04PM 38.5492 -76.7678 36° Northeast 430 495 35,100  Level Washington Center
12:05PM 38.6478 -76.6761 36° Northeast 430 495 35,100 -540 Level Washington Center
12:06PM 38.7444 -76.5872 36° Northeast 430 495 34,100 -1,320 Descending Washington Center
12:07PM 38.8453 -76.4953 35° Northeast 430 495 32,600 -1,560 Descending Washington Center
12:08PM 38.9439 -76.4003 37° Northeast 430 495 31,100 -1,440 Descending Washington Center
12:09PM 39.0217 -76.3264 36° Northeast 430 495 29,700 -1,740 Descending Washington Center
12:10PM 39.1411 -76.2125 36° Northeast 435 501 27,700 -1,380 Descending Washington Center
12:11PM 39.2331 -76.1303 35° Northeast 435 501 27,000 -360 Descending Washington Center
12:12PM 39.3231 -76.0317 40° Northeast 429 494 27,000  Level Washington Center
12:13PM 39.4131 -75.9247 43° Northeast 429 494 27,000  Level Washington Center
12:14PM 39.5072 -75.8175 41° Northeast 435 501 27,000 -1,080 Level Washington Center
12:15PM 39.5947 -75.7100 43° Northeast 435 501 24,900 -2,520 Descending Washington Center
12:16PM 39.6844 -75.6050 42° Northeast 435 501 22,000 -2,940 Descending Washington Center
12:17PM 39.7678 -75.5050 43° Northeast 430 495 19,100 -2,340 Descending Washington Center
12:18PM 39.8489 -75.4050 43° Northeast 411 473 17,400 -1,920 Descending Washington Center
12:19PM 39.9300 -75.3075 43° Northeast 398 458 15,300 -2,160 Descending Washington Center
12:20PM 40.0047 -75.2150 43° Northeast 379 436 13,200 -1,920 Descending Washington Center
12:21PM 40.0833 -75.1169 44° Northeast 367 422 11,400 -1,200 Descending Washington Center
12:22PM 40.1558 -75.0297 43° Northeast 362 417 10,900 -1,020 Descending Washington Center
12:24PM 40.2333 -74.9333 44° Northeast 265 305 9,000 -1,260 Descending New York TRACON
12:25PM 40.2833 -74.8667 45° Northeast 260 299 8,000 -540 Descending New York TRACON
12:26PM 40.3167 -74.7667 66° East 276 318 8,000  Level New York TRACON
12:27PM 40.3333 -74.6667 78° East 249 287 8,000 -300 Level New York TRACON
12:28PM 40.3333 -74.6000 90° East 233 268 7,500 -1,260 Descending New York TRACON
12:29PM 40.3500 -74.5167 75° East 237 273 5,700 -1,320 Descending New York TRACON
12:30PM 40.3500 -74.4333 90° East 217 250 5,000 -420 Descending New York TRACON
12:31PM 40.3667 -74.3667 72° East 198 228 5,000  Level New York TRACON
12:32PM 40.4167 -74.3333 27° Northeast 190 219 5,000 -120 Level New York TRACON
12:33PM 40.4667 -74.3167 14° North 187 215 4,800 -600 Descending New York TRACON
12:34PM 40.5167 -74.2833 27° Northeast 191 220 3,800 -1,020 Descending New York TRACON
12:35PM 40.5500 -74.2500 37° Northeast 183 211 2,800 -1,020 Descending New York TRACON